Time;durP1;ratioP1;P1;durP2;ratioP2;P2;SDS_P1;SDS_P2;PMS_P1;PMS_P2;Temp;Humidity;BMP_temperature;BMP_pressure;BME280_temperature;BME280_humidity;BME280_pressure;Samples;Min_cycle;Max_cycle;Signal;HPM_P1;HPM_P2
2023/04/29 00:01:12;;;;;;;25.03;18.20;;;12.90;99.90;;;;;;5028906;28;21034;-77
2023/04/29 00:03:38;;;;;;;26.30;17.37;;;12.90;99.90;;;;;;5029342;28;20187;-77
2023/04/29 00:06:04;;;;;;;25.30;16.93;;;12.90;99.90;;;;;;5030285;28;20950;-76
2023/04/29 00:08:29;;;;;;;24.77;18.30;;;12.80;99.90;;;;;;5028463;28;20197;-77
2023/04/29 00:10:55;;;;;;;23.30;18.50;;;12.80;99.90;;;;;;5029674;28;20268;-77
2023/04/29 00:13:21;;;;;;;23.70;18.93;;;12.80;99.90;;;;;;5029606;28;20228;-77
2023/04/29 00:15:46;;;;;;;22.50;17.90;;;12.80;99.90;;;;;;5030075;28;20191;-77
2023/04/29 00:18:12;;;;;;;24.93;19.00;;;12.90;99.90;;;;;;5028770;28;20197;-77
2023/04/29 00:20:39;;;;;;;25.23;17.83;;;12.80;99.90;;;;;;5028560;28;20321;-76
2023/04/29 00:23:06;;;;;;;25.50;18.70;;;12.80;99.90;;;;;;5028943;28;20564;-77
2023/04/29 00:25:31;;;;;;;28.63;19.63;;;12.90;99.90;;;;;;5029022;28;20587;-77
2023/04/29 00:28:00;;;;;;;24.83;19.07;;;12.90;99.90;;;;;;5029196;28;20429;-77
2023/04/29 00:30:27;;;;;;;28.97;20.37;;;12.80;99.90;;;;;;5031247;28;20182;-76
2023/04/29 00:32:54;;;;;;;28.73;20.90;;;12.80;99.90;;;;;;5032186;28;20439;-77
2023/04/29 00:35:20;;;;;;;29.43;20.50;;;12.70;99.90;;;;;;5031176;28;20507;-77
2023/04/29 00:37:46;;;;;;;26.40;19.90;;;12.70;99.90;;;;;;5032154;28;20428;-77
2023/04/29 00:40:15;;;;;;;26.37;19.83;;;12.80;99.90;;;;;;5032277;28;20417;-77
2023/04/29 00:42:41;;;;;;;26.20;18.90;;;12.80;99.90;;;;;;5032286;28;20198;-76
2023/04/29 00:45:10;;;;;;;25.33;20.10;;;12.70;99.90;;;;;;5032357;28;20483;-76
2023/04/29 00:47:36;;;;;;;33.57;19.80;;;12.70;99.90;;;;;;5032072;28;20913;-77
2023/04/29 00:50:04;;;;;;;23.90;18.67;;;12.70;99.90;;;;;;5031916;28;20425;-77
2023/04/29 00:52:33;;;;;;;27.17;20.13;;;12.70;99.90;;;;;;5031879;28;20802;-77
2023/04/29 00:54:59;;;;;;;30.47;20.20;;;12.70;99.90;;;;;;5032047;28;20771;-77
2023/04/29 00:57:27;;;;;;;27.23;19.37;;;12.70;99.90;;;;;;5031720;28;20424;-77
2023/04/29 00:59:54;;;;;;;28.30;20.60;;;12.70;99.90;;;;;;5025215;28;20892;-76
2023/04/29 01:02:20;;;;;;;28.63;20.30;;;12.70;99.90;;;;;;5028254;28;20440;-77
2023/04/29 01:04:46;;;;;;;25.80;19.70;;;12.70;99.90;;;;;;5031545;28;20457;-77
2023/04/29 01:07:17;;;;;;;33.23;21.43;;;12.70;99.90;;;;;;5025318;28;20468;-77
2023/04/29 01:09:42;;;;;;;32.90;21.20;;;12.70;99.90;;;;;;5030233;28;20425;-77
2023/04/29 01:12:27;;;;;;;36.50;21.87;;;12.60;99.90;;;;;;5030759;28;20433;-77
2023/04/29 01:15:41;;;;;;;33.40;21.90;;;12.60;99.90;;;;;;5031408;28;20184;-77
2023/04/29 01:18:18;;;;;;;29.97;20.27;;;12.50;99.90;;;;;;5000665;28;20488;-77
2023/04/29 01:20:44;;;;;;;32.70;23.10;;;12.50;99.90;;;;;;5027065;28;20425;-77
2023/04/29 01:23:11;;;;;;;34.17;22.10;;;12.50;99.90;;;;;;5030138;28;20504;-76
2023/04/29 01:25:37;;;;;;;40.80;26.57;;;12.50;99.90;;;;;;5028604;28;21249;-76
2023/04/29 01:28:21;;;;;;;38.20;24.20;;;12.50;99.90;;;;;;5030803;28;20771;-77
2023/04/29 01:31:23;;;;;;;43.77;26.77;;;12.50;99.90;;;;;;5030208;28;20921;-77
2023/04/29 01:34:23;;;;;;;42.40;27.17;;;12.40;99.90;;;;;;5031072;28;20420;-77
2023/04/29 01:36:56;;;;;;;42.90;26.77;;;12.40;99.90;;;;;;5030771;28;20910;-77
2023/04/29 01:39:31;;;;;;;42.70;27.70;;;12.40;99.90;;;;;;5029561;28;20474;-77
2023/04/29 01:42:13;;;;;;;44.77;28.07;;;12.40;99.90;;;;;;5031509;28;20439;-77
2023/04/29 01:44:41;;;;;;;49.37;30.37;;;12.30;99.90;;;;;;5029400;28;20424;-77
2023/04/29 01:47:11;;;;;;;45.63;29.63;;;12.40;99.90;;;;;;5029885;28;20511;-77
2023/04/29 01:49:37;;;;;;;43.63;27.87;;;12.40;99.90;;;;;;5031066;28;20809;-77
2023/04/29 01:52:02;;;;;;;44.57;29.00;;;12.40;99.90;;;;;;5030261;28;20441;-77
2023/04/29 01:54:28;;;;;;;48.60;29.30;;;12.40;99.90;;;;;;5030758;28;20487;-77
2023/04/29 01:56:54;;;;;;;51.67;29.80;;;12.40;99.90;;;;;;5030278;28;20193;-77
2023/04/29 01:59:20;;;;;;;50.50;31.80;;;12.40;99.90;;;;;;5030174;28;20190;-75
2023/04/29 02:01:46;;;;;;;50.37;31.47;;;12.30;99.90;;;;;;5029410;28;20238;-76
2023/04/29 02:04:11;;;;;;;53.10;31.10;;;12.30;99.90;;;;;;5030223;28;20262;-76
2023/04/29 02:06:37;;;;;;;61.33;32.23;;;12.20;99.90;;;;;;5030315;28;20457;-77
2023/04/29 02:09:03;;;;;;;54.53;32.57;;;12.20;99.90;;;;;;5028997;28;20186;-77
2023/04/29 02:11:28;;;;;;;48.37;28.27;;;12.20;99.90;;;;;;5029887;28;20288;-77
2023/04/29 02:13:55;;;;;;;53.73;30.60;;;12.20;99.90;;;;;;5030060;28;20183;-77
2023/04/29 02:16:21;;;;;;;51.80;31.20;;;12.30;99.90;;;;;;5030108;28;20707;-77
2023/04/29 02:18:46;;;;;;;46.33;29.37;;;12.30;99.90;;;;;;5030044;28;20509;-77
2023/04/29 02:21:12;;;;;;;49.00;29.73;;;12.20;99.90;;;;;;5029841;28;20206;-76
2023/04/29 02:23:38;;;;;;;47.47;28.97;;;12.20;99.90;;;;;;5030277;28;20205;-76
2023/04/29 02:26:08;;;;;;;52.63;29.50;;;12.20;99.90;;;;;;5030272;28;20606;-77
2023/04/29 02:28:34;;;;;;;58.47;32.63;;;12.10;99.90;;;;;;5030203;28;20701;-77
2023/04/29 02:31:00;;;;;;;56.50;31.17;;;12.20;99.90;;;;;;5028832;28;20440;-77
2023/04/29 02:33:25;;;;;;;52.67;30.40;;;12.10;99.90;;;;;;5028825;28;20719;-77
2023/04/29 02:35:51;;;;;;;51.27;29.60;;;12.10;99.90;;;;;;5042330;28;20221;-77
2023/04/29 02:38:17;;;;;;;53.80;29.53;;;12.00;99.90;;;;;;5029924;28;20190;-76
2023/04/29 02:40:44;;;;;;;50.97;29.60;;;12.00;99.90;;;;;;5028256;28;20179;-77
2023/04/29 02:43:10;;;;;;;49.93;28.20;;;12.00;99.90;;;;;;5029207;28;20596;-77
2023/04/29 02:45:37;;;;;;;49.00;28.20;;;12.00;99.90;;;;;;5029638;28;20464;-77
2023/04/29 02:48:04;;;;;;;48.30;28.80;;;11.90;99.90;;;;;;5030173;28;20428;-76
2023/04/29 02:50:30;;;;;;;45.47;28.80;;;11.90;99.90;;;;;;5028941;28;20511;-76
2023/04/29 02:52:56;;;;;;;43.57;28.33;;;11.90;99.90;;;;;;5030121;28;20505;-76
2023/04/29 02:55:22;;;;;;;47.40;26.70;;;11.90;99.90;;;;;;5029017;28;20217;-77
2023/04/29 02:57:47;;;;;;;41.47;27.00;;;11.90;99.90;;;;;;5029893;28;20452;-76
2023/04/29 03:00:13;;;;;;;43.27;26.20;;;11.90;99.90;;;;;;5029209;28;20193;-77
2023/04/29 03:02:39;;;;;;;40.03;25.67;;;11.90;99.90;;;;;;5029990;28;20238;-76
2023/04/29 03:05:05;;;;;;;42.07;26.07;;;11.90;99.90;;;;;;5029589;28;20213;-77
2023/04/29 03:07:31;;;;;;;36.83;24.83;;;11.80;99.90;;;;;;5029403;28;20421;-77
2023/04/29 03:09:57;;;;;;;38.23;25.43;;;11.90;99.90;;;;;;5029850;28;20425;-77
2023/04/29 03:12:22;;;;;;;38.13;23.23;;;11.80;99.90;;;;;;5029010;28;20441;-77
2023/04/29 03:14:48;;;;;;;33.10;22.87;;;11.70;99.90;;;;;;5028715;28;20193;-76
2023/04/29 03:17:14;;;;;;;37.53;23.50;;;11.80;99.90;;;;;;5030029;28;20858;-77
2023/04/29 03:19:40;;;;;;;36.77;22.80;;;11.80;99.90;;;;;;5030380;28;20837;-77
2023/04/29 03:22:09;;;;;;;36.77;23.07;;;11.80;99.90;;;;;;5030367;28;20217;-77
2023/04/29 03:24:35;;;;;;;31.00;21.33;;;11.80;99.90;;;;;;5037318;28;20432;-76
2023/04/29 03:27:00;;;;;;;36.07;22.23;;;11.70;99.90;;;;;;5045280;28;20476;-75
2023/04/29 03:29:26;;;;;;;34.57;21.40;;;11.80;99.90;;;;;;5038343;28;20178;-78
2023/04/29 03:31:53;;;;;;;32.27;20.00;;;11.80;99.90;;;;;;5027537;28;20214;-78
2023/04/29 03:34:19;;;;;;;29.43;19.40;;;11.70;99.90;;;;;;5009443;28;20483;-78
2023/04/29 03:36:44;;;;;;;28.17;18.77;;;11.70;99.90;;;;;;5024347;28;20936;-78
2023/04/29 03:39:11;;;;;;;28.80;18.90;;;11.70;99.90;;;;;;5015724;28;20425;-78
2023/04/29 03:41:37;;;;;;;33.60;19.70;;;11.60;99.90;;;;;;5027489;28;20638;-77
2023/04/29 03:44:03;;;;;;;30.30;19.07;;;11.60;99.90;;;;;;5028868;28;20420;-77
2023/04/29 03:46:29;;;;;;;29.90;19.33;;;11.60;99.90;;;;;;5028802;28;20452;-77
2023/04/29 03:48:55;;;;;;;30.10;19.77;;;11.60;99.90;;;;;;5028699;28;20898;-77
2023/04/29 03:51:24;;;;;;;27.50;18.33;;;11.60;99.90;;;;;;5028603;28;20252;-77
2023/04/29 03:53:51;;;;;;;27.30;18.30;;;11.50;99.90;;;;;;5028549;28;20409;-77
2023/04/29 03:56:17;;;;;;;26.70;17.93;;;11.60;99.90;;;;;;5023972;28;20491;-77
2023/04/29 03:58:42;;;;;;;26.93;17.90;;;11.50;99.90;;;;;;5028534;28;21060;-77
2023/04/29 04:01:08;;;;;;;31.50;19.07;;;11.60;99.90;;;;;;5028562;28;20212;-77
2023/04/29 04:03:34;;;;;;;27.93;18.83;;;11.60;99.90;;;;;;5028599;28;20570;-77
2023/04/29 04:06:00;;;;;;;27.10;18.77;;;11.60;99.90;;;;;;5031451;28;20217;-77
2023/04/29 04:08:25;;;;;;;29.43;20.07;;;11.60;99.90;;;;;;5031286;28;20437;-77
2023/04/29 04:10:51;;;;;;;26.90;19.20;;;11.60;99.90;;;;;;5030891;28;20210;-77
2023/04/29 04:13:17;;;;;;;29.00;18.20;;;11.50;99.90;;;;;;5032454;28;20598;-77
2023/04/29 04:15:50;;;;;;;27.60;19.37;;;11.50;99.90;;;;;;5032744;28;20221;-77
2023/04/29 04:18:15;;;;;;;25.57;18.53;;;11.50;99.90;;;;;;5030996;28;20425;-77
2023/04/29 04:20:41;;;;;;;27.20;19.50;;;11.50;99.90;;;;;;5032182;28;20455;-78
2023/04/29 04:23:07;;;;;;;27.47;18.23;;;11.50;99.90;;;;;;5014375;28;20186;-77
2023/04/29 04:25:32;;;;;;;24.20;16.40;;;11.50;99.90;;;;;;5031241;28;20202;-78
2023/04/29 04:27:58;;;;;;;25.33;18.20;;;11.50;99.90;;;;;;5031946;28;20719;-77
2023/04/29 04:30:23;;;;;;;25.43;16.90;;;11.50;99.90;;;;;;5032306;28;20178;-77
2023/04/29 04:32:49;;;;;;;24.03;17.70;;;11.50;99.90;;;;;;5031883;28;20202;-77
2023/04/29 04:35:15;;;;;;;23.33;16.60;;;11.50;99.90;;;;;;5032098;28;20174;-77
2023/04/29 04:37:40;;;;;;;25.33;17.10;;;11.50;99.90;;;;;;5031703;28;20675;-77
2023/04/29 04:40:08;;;;;;;24.03;17.60;;;11.50;99.90;;;;;;5029878;28;20222;-77
2023/04/29 04:42:33;;;;;;;24.43;18.00;;;11.50;99.90;;;;;;5031724;28;20195;-77
2023/04/29 04:44:59;;;;;;;31.37;19.37;;;11.50;99.90;;;;;;5030614;28;20827;-77
2023/04/29 04:47:25;;;;;;;24.73;18.87;;;11.50;99.90;;;;;;5030423;28;20189;-78
2023/04/29 04:49:51;;;;;;;26.73;19.90;;;11.50;99.90;;;;;;5031654;28;20421;-77
2023/04/29 04:52:20;;;;;;;24.67;17.20;;;11.40;99.90;;;;;;5030487;28;20202;-77
2023/04/29 04:54:46;;;;;;;26.60;19.93;;;11.40;99.90;;;;;;5031652;28;20804;-77
2023/04/29 04:57:12;;;;;;;25.20;18.47;;;11.40;99.90;;;;;;5031449;28;20413;-77
2023/04/29 04:59:38;;;;;;;24.17;18.27;;;11.40;99.90;;;;;;5031559;28;20500;-77
2023/04/29 05:02:04;;;;;;;23.60;18.27;;;11.40;99.90;;;;;;5031643;28;20198;-77
2023/04/29 05:04:29;;;;;;;26.13;19.13;;;11.40;99.90;;;;;;5031184;28;20444;-77
2023/04/29 05:06:55;;;;;;;28.10;18.73;;;11.40;99.90;;;;;;5030004;28;20293;-77
2023/04/29 05:09:21;;;;;;;24.53;18.20;;;11.40;99.90;;;;;;5030050;28;20178;-76
2023/04/29 05:11:46;;;;;;;26.27;19.43;;;11.50;99.90;;;;;;5030802;28;20242;-77
2023/04/29 05:14:12;;;;;;;27.23;18.77;;;11.50;99.90;;;;;;5029525;28;20179;-77
2023/04/29 05:16:38;;;;;;;24.77;17.90;;;11.50;99.90;;;;;;5031293;28;20193;-77
2023/04/29 05:19:04;;;;;;;23.13;18.47;;;11.50;99.90;;;;;;5030697;28;20185;-77
2023/04/29 05:21:30;;;;;;;23.20;18.93;;;11.50;99.90;;;;;;5031115;28;20659;-78
2023/04/29 05:23:56;;;;;;;22.80;18.43;;;11.50;99.90;;;;;;5029600;28;20575;-77
2023/04/29 05:26:22;;;;;;;24.27;19.27;;;11.50;99.90;;;;;;5028818;28;20472;-78
2023/04/29 05:28:48;;;;;;;27.10;20.40;;;11.50;99.90;;;;;;5029437;28;20421;-77
2023/04/29 05:31:14;;;;;;;24.93;18.80;;;11.50;99.90;;;;;;5030938;28;20437;-78
2023/04/29 05:33:40;;;;;;;29.50;19.57;;;11.50;99.90;;;;;;5030852;28;20583;-77
2023/04/29 05:36:06;;;;;;;25.47;19.17;;;11.50;99.90;;;;;;5031102;28;20218;-78
2023/04/29 05:38:32;;;;;;;30.60;20.83;;;11.40;99.90;;;;;;5030781;28;20519;-78
2023/04/29 05:40:57;;;;;;;25.60;19.70;;;11.40;99.90;;;;;;5029560;28;20488;-78
2023/04/29 05:43:24;;;;;;;29.50;21.07;;;11.40;99.90;;;;;;5030515;28;20186;-77
2023/04/29 05:45:49;;;;;;;29.53;19.27;;;11.50;99.90;;;;;;5030674;28;20680;-78
2023/04/29 05:48:15;;;;;;;22.47;18.10;;;11.40;99.90;;;;;;5029818;28;20580;-77
2023/04/29 05:50:41;;;;;;;26.30;19.77;;;11.40;99.90;;;;;;5030158;28;20178;-78
2023/04/29 05:53:07;;;;;;;25.00;18.40;;;11.40;99.90;;;;;;5030404;28;20264;-78
2023/04/29 05:55:33;;;;;;;29.00;20.03;;;11.40;99.90;;;;;;5030888;28;20174;-78
2023/04/29 05:57:58;;;;;;;27.30;19.60;;;11.40;99.90;;;;;;5030363;28;20709;-76
2023/04/29 06:00:24;;;;;;;27.67;20.40;;;11.30;99.90;;;;;;5029545;28;20178;-78
2023/04/29 06:02:50;;;;;;;29.93;20.53;;;11.40;99.90;;;;;;5030405;28;20190;-77
2023/04/29 06:05:15;;;;;;;27.77;20.40;;;11.50;99.90;;;;;;5029355;28;20213;-78
2023/04/29 06:07:42;;;;;;;25.30;18.97;;;11.40;99.90;;;;;;5030159;28;20257;-77
2023/04/29 06:10:09;;;;;;;25.93;20.30;;;11.50;99.90;;;;;;5029684;28;20194;-77
2023/04/29 06:12:35;;;;;;;25.37;19.60;;;11.50;99.90;;;;;;5029103;28;20429;-77
2023/04/29 06:15:00;;;;;;;26.70;20.23;;;11.40;99.90;;;;;;5030001;28;20758;-77
2023/04/29 06:17:28;;;;;;;28.97;22.37;;;11.40;99.90;;;;;;5030264;28;20189;-77
2023/04/29 06:19:54;;;;;;;28.30;21.47;;;11.50;99.90;;;;;;5030031;28;20793;-78
2023/04/29 06:22:20;;;;;;;27.83;21.43;;;11.50;99.90;;;;;;5030264;28;20441;-78
2023/04/29 06:24:48;;;;;;;29.17;21.27;;;11.50;99.90;;;;;;5028504;28;20409;-78
2023/04/29 06:27:14;;;;;;;31.10;21.20;;;11.50;99.90;;;;;;5024824;28;20206;-78
2023/04/29 06:29:40;;;;;;;25.00;19.10;;;11.50;99.90;;;;;;5029678;28;20930;-78
2023/04/29 06:32:07;;;;;;;24.33;18.13;;;11.50;99.90;;;;;;5029947;28;20519;-78
2023/04/29 06:34:32;;;;;;;27.20;20.27;;;11.50;99.90;;;;;;5028442;28;20421;-78
2023/04/29 06:36:58;;;;;;;24.10;18.07;;;11.50;99.90;;;;;;5028622;28;20501;-78
2023/04/29 06:39:24;;;;;;;26.23;18.97;;;11.50;99.90;;;;;;5028017;28;20183;-78
2023/04/29 06:41:50;;;;;;;22.70;18.33;;;11.60;99.90;;;;;;5029832;28;20202;-78
2023/04/29 06:44:17;;;;;;;26.10;21.33;;;11.60;99.90;;;;;;5026570;28;20186;-77
2023/04/29 06:46:43;;;;;;;25.30;20.40;;;11.50;99.90;;;;;;5027318;28;20464;-77
2023/04/29 06:49:09;;;;;;;24.93;19.13;;;11.50;99.90;;;;;;5028888;28;20425;-77
2023/04/29 06:51:36;;;;;;;28.53;20.90;;;11.50;99.90;;;;;;5028307;28;20198;-77
2023/04/29 06:54:03;;;;;;;22.80;18.60;;;11.40;99.90;;;;;;5028352;28;20602;-77
2023/04/29 06:56:29;;;;;;;27.33;19.03;;;11.50;99.90;;;;;;5028860;28;20417;-76
2023/04/29 06:58:54;;;;;;;29.10;20.07;;;11.50;99.90;;;;;;5028370;28;20428;-77
2023/04/29 07:01:20;;;;;;;25.33;20.50;;;11.50;99.90;;;;;;5027728;28;20194;-77
2023/04/29 07:03:46;;;;;;;31.10;20.40;;;11.50;99.90;;;;;;5028854;28;20178;-76
2023/04/29 07:06:12;;;;;;;25.73;20.33;;;11.50;99.90;;;;;;5028139;28;20218;-77
2023/04/29 07:08:37;;;;;;;26.90;20.27;;;11.60;99.90;;;;;;5028075;28;20173;-79
2023/04/29 07:11:04;;;;;;;26.67;20.43;;;11.50;99.90;;;;;;5013142;28;20224;-77
2023/04/29 07:13:29;;;;;;;29.40;20.23;;;11.50;99.90;;;;;;5030488;28;20417;-77
2023/04/29 07:15:55;;;;;;;25.93;21.07;;;11.50;99.90;;;;;;5029738;28;20424;-77
2023/04/29 07:18:21;;;;;;;25.23;19.60;;;11.50;99.90;;;;;;5030056;28;20667;-79
2023/04/29 07:20:47;;;;;;;23.50;19.67;;;11.50;99.90;;;;;;5031377;28;20840;-78
2023/04/29 07:23:13;;;;;;;26.03;20.00;;;11.50;99.90;;;;;;5031507;28;20675;-80
2023/04/29 07:25:40;;;;;;;25.27;19.57;;;11.50;99.90;;;;;;5031779;28;20201;-78
2023/04/29 07:28:07;;;;;;;30.37;22.33;;;11.40;99.90;;;;;;5031323;28;20430;-78
2023/04/29 07:30:32;;;;;;;27.90;21.40;;;11.50;99.90;;;;;;5030341;28;20420;-77
2023/04/29 07:32:59;;;;;;;25.27;20.63;;;11.40;99.90;;;;;;5029397;28;20417;-78
2023/04/29 07:35:25;;;;;;;27.87;21.93;;;11.40;99.90;;;;;;5029083;28;20695;-77
2023/04/29 07:37:50;;;;;;;31.23;22.27;;;11.40;99.90;;;;;;5031161;28;20481;-77
2023/04/29 07:40:16;;;;;;;25.60;21.20;;;11.40;99.90;;;;;;5034428;28;20173;-77
2023/04/29 07:42:42;;;;;;;29.93;22.87;;;11.30;99.90;;;;;;5033473;28;20206;-78
2023/04/29 07:45:09;;;;;;;27.37;21.17;;;11.30;99.90;;;;;;5033807;28;20500;-77
2023/04/29 07:47:34;;;;;;;25.27;20.23;;;11.30;99.90;;;;;;5033371;28;20424;-77
2023/04/29 07:50:00;;;;;;;30.00;22.60;;;11.30;99.90;;;;;;5032866;28;20413;-77
2023/04/29 07:52:26;;;;;;;29.00;21.67;;;11.30;99.90;;;;;;5031996;28;20441;-77
2023/04/29 07:54:54;;;;;;;28.30;21.13;;;11.30;99.90;;;;;;5032982;28;20220;-77
2023/04/29 07:57:20;;;;;;;27.60;20.70;;;11.30;99.90;;;;;;5032796;28;20240;-79
2023/04/29 07:59:46;;;;;;;27.90;21.97;;;11.30;99.90;;;;;;5032948;28;20417;-77
2023/04/29 08:02:12;;;;;;;26.67;20.80;;;11.40;99.90;;;;;;5033678;28;20205;-77
2023/04/29 08:04:41;;;;;;;27.73;19.83;;;11.30;99.90;;;;;;5020183;28;20254;-78
2023/04/29 08:07:08;;;;;;;29.33;22.07;;;11.40;99.90;;;;;;5032861;28;20482;-77
2023/04/29 08:09:33;;;;;;;29.00;21.70;;;11.40;99.90;;;;;;5016443;28;20409;-77
2023/04/29 08:12:00;;;;;;;27.33;20.80;;;11.30;99.90;;;;;;5033406;28;20928;-77
2023/04/29 08:14:26;;;;;;;28.87;22.00;;;11.30;99.90;;;;;;5030941;28;20189;-78
2023/04/29 08:16:53;;;;;;;28.97;24.00;;;11.30;99.90;;;;;;5014845;28;20773;-77
2023/04/29 08:19:20;;;;;;;28.90;22.80;;;11.30;99.90;;;;;;5014966;28;20210;-77
2023/04/29 08:21:46;;;;;;;30.37;22.30;;;11.30;99.90;;;;;;5032299;28;20873;-77
2023/04/29 08:24:12;;;;;;;34.70;24.10;;;11.30;99.90;;;;;;5031913;28;20417;-78
2023/04/29 08:26:41;;;;;;;32.60;24.03;;;11.30;99.90;;;;;;5031173;28;20457;-77
2023/04/29 08:29:07;;;;;;;40.00;26.77;;;11.30;99.90;;;;;;5030709;28;20412;-77
2023/04/29 08:31:33;;;;;;;33.63;23.77;;;11.30;99.90;;;;;;5013894;28;20437;-77
2023/04/29 08:33:59;;;;;;;37.50;25.50;;;11.30;99.90;;;;;;5030205;28;20413;-78
2023/04/29 08:36:27;;;;;;;34.43;25.73;;;11.30;99.90;;;;;;5031689;28;20467;-78
2023/04/29 08:38:54;;;;;;;35.67;24.30;;;11.30;99.90;;;;;;5031635;28;20496;-77
2023/04/29 08:41:19;;;;;;;32.30;24.37;;;11.40;99.90;;;;;;5031331;28;20457;-77
2023/04/29 08:43:45;;;;;;;33.57;25.57;;;11.30;99.90;;;;;;5031714;28;20889;-77
2023/04/29 08:46:11;;;;;;;37.47;25.37;;;11.30;99.90;;;;;;5031692;28;20220;-77
2023/04/29 08:48:46;;;;;;;36.63;25.40;;;11.30;99.90;;;;;;5010215;28;20427;-77
2023/04/29 08:51:15;;;;;;;42.00;27.67;;;11.30;99.90;;;;;;5030169;28;20453;-78
2023/04/29 08:53:40;;;;;;;38.37;26.03;;;11.30;99.90;;;;;;5029982;28;20523;-79
2023/04/29 08:56:12;;;;;;;39.70;26.70;;;11.30;99.90;;;;;;5030133;28;20516;-77
2023/04/29 08:58:39;;;;;;;39.43;27.63;;;11.30;99.90;;;;;;5031479;28;20182;-78
2023/04/29 09:01:08;;;;;;;44.70;28.30;;;11.40;99.90;;;;;;5029935;28;21003;-79
2023/04/29 09:03:49;;;;;;;48.43;30.03;;;11.30;99.90;;;;;;5030970;28;20425;-78
2023/04/29 09:06:15;;;;;;;42.10;29.47;;;11.40;99.90;;;;;;5031078;28;20448;-77
2023/04/29 09:08:41;;;;;;;41.00;28.20;;;11.30;99.90;;;;;;5020074;28;21102;-77
2023/04/29 09:11:11;;;;;;;45.67;31.50;;;11.40;99.90;;;;;;5029281;28;20579;-77
2023/04/29 09:13:36;;;;;;;41.47;29.87;;;11.40;99.90;;;;;;5031239;28;20181;-78
2023/04/29 09:16:03;;;;;;;51.83;31.30;;;11.40;99.90;;;;;;5031517;28;20417;-78
2023/04/29 09:18:48;;;;;;;40.07;28.03;;;11.40;99.90;;;;;;5030056;28;20413;-77
2023/04/29 09:21:26;;;;;;;43.40;29.53;;;11.40;99.90;;;;;;5031011;28;20444;-77
2023/04/29 09:23:57;;;;;;;46.43;30.27;;;11.40;99.90;;;;;;5029892;28;20914;-77
2023/04/29 09:26:23;;;;;;;50.63;31.40;;;11.30;99.90;;;;;;5030985;28;20556;-77
2023/04/29 09:29:08;;;;;;;43.43;29.13;;;11.40;99.90;;;;;;5030053;28;20420;-78
2023/04/29 09:31:34;;;;;;;45.53;28.47;;;11.40;99.90;;;;;;5030994;28;20456;-79
2023/04/29 09:34:00;;;;;;;47.50;29.90;;;11.50;99.90;;;;;;5025967;28;20438;-78
2023/04/29 09:36:50;;;;;;;45.20;29.33;;;11.50;99.90;;;;;;5031993;28;20413;-77
2023/04/29 09:39:21;;;;;;;46.43;30.00;;;11.50;99.90;;;;;;5031275;28;20241;-79
2023/04/29 09:41:52;;;;;;;50.10;30.30;;;11.50;99.90;;;;;;5014736;28;20447;-78
2023/04/29 09:44:22;;;;;;;45.40;30.33;;;11.50;99.90;;;;;;5031066;28;20512;-79
2023/04/29 09:47:01;;;;;;;44.40;28.10;;;11.50;99.90;;;;;;5029023;28;20468;-78
2023/04/29 09:49:29;;;;;;;45.50;28.43;;;11.50;99.90;;;;;;5032254;28;20412;-78
2023/04/29 09:51:56;;;;;;;43.23;28.00;;;11.50;99.90;;;;;;5025996;28;20518;-79
2023/04/29 09:54:24;;;;;;;43.47;27.53;;;11.50;99.90;;;;;;5029582;28;20413;-79
2023/04/29 09:56:51;;;;;;;42.10;29.30;;;11.50;99.90;;;;;;5029374;28;20439;-79
2023/04/29 09:59:18;;;;;;;50.40;29.43;;;11.60;99.90;;;;;;5031954;28;20425;-76
2023/04/29 10:01:46;;;;;;;44.47;30.17;;;11.60;99.90;;;;;;5031639;28;20779;-79
2023/04/29 10:04:14;;;;;;;48.63;30.60;;;11.60;99.90;;;;;;5030614;28;20457;-79
2023/04/29 10:06:41;;;;;;;40.90;28.67;;;11.70;99.90;;;;;;5029676;28;20472;-77
2023/04/29 10:09:09;;;;;;;42.10;29.77;;;11.80;99.90;;;;;;5031176;28;20922;-78
2023/04/29 10:11:36;;;;;;;39.97;27.53;;;11.70;99.90;;;;;;5032259;28;21141;-78
2023/04/29 10:14:04;;;;;;;40.33;28.40;;;11.80;99.90;;;;;;5031981;28;20484;-77
2023/04/29 10:16:38;;;;;;;37.80;28.33;;;11.90;99.90;;;;;;5031447;28;20536;-78
2023/04/29 10:19:06;;;;;;;43.60;29.00;;;11.90;99.90;;;;;;5031516;28;20412;-75
2023/04/29 10:21:32;;;;;;;41.30;28.40;;;11.90;99.90;;;;;;5031508;28;20799;-78
2023/04/29 10:24:00;;;;;;;42.30;27.97;;;12.00;99.90;;;;;;5032086;28;20417;-77
2023/04/29 10:26:30;;;;;;;43.50;27.57;;;12.00;99.90;;;;;;5031472;28;20464;-77
2023/04/29 10:28:58;;;;;;;40.37;27.47;;;12.10;99.90;;;;;;5031245;28;20413;-77
2023/04/29 10:31:29;;;;;;;37.77;29.17;;;12.10;99.90;;;;;;5031885;28;20897;-77
2023/04/29 10:33:56;;;;;;;36.47;27.40;;;12.10;99.90;;;;;;5031092;28;20413;-77
2023/04/29 10:36:24;;;;;;;41.93;29.37;;;12.20;99.90;;;;;;5032252;28;20755;-79
2023/04/29 10:38:54;;;;;;;36.93;27.57;;;12.30;99.90;;;;;;5030967;28;20945;-77
2023/04/29 10:41:32;;;;;;;39.63;27.70;;;12.30;99.90;;;;;;5031986;28;20682;-78
2023/04/29 10:43:58;;;;;;;35.93;26.60;;;12.40;99.90;;;;;;5032512;28;20417;-79
2023/04/29 10:46:25;;;;;;;34.53;25.30;;;12.40;99.90;;;;;;5030941;28;21019;-78
2023/04/29 10:48:59;;;;;;;38.10;26.57;;;12.50;99.90;;;;;;5031543;28;20463;-78
2023/04/29 10:51:31;;;;;;;40.40;26.47;;;12.50;99.90;;;;;;5013901;28;20800;-78
2023/04/29 10:54:24;;;;;;;35.07;27.20;;;12.60;99.90;;;;;;5031668;28;20413;-78
2023/04/29 10:56:53;;;;;;;34.40;25.10;;;12.70;99.90;;;;;;5014440;28;20763;-78
2023/04/29 10:59:41;;;;;;;32.77;24.50;;;12.80;99.90;;;;;;5031603;28;20444;-79
2023/04/29 11:02:09;;;;;;;33.03;24.73;;;12.80;99.90;;;;;;5031888;28;20433;-77
2023/04/29 11:05:05;;;;;;;31.37;24.37;;;12.90;99.90;;;;;;5031517;28;20437;-79
2023/04/29 11:07:31;;;;;;;33.83;25.87;;;12.90;99.90;;;;;;5028942;28;20471;-77
2023/04/29 11:09:57;;;;;;;32.20;23.83;;;13.00;99.90;;;;;;5029826;28;20460;-78
2023/04/29 11:12:22;;;;;;;29.33;22.57;;;13.00;99.90;;;;;;5031357;28;20201;-78
2023/04/29 11:14:51;;;;;;;31.90;25.10;;;13.00;99.90;;;;;;5030942;28;20948;-78
2023/04/29 11:17:19;;;;;;;28.67;23.10;;;13.00;99.90;;;;;;5031812;28;20715;-78
2023/04/29 11:19:51;;;;;;;32.60;24.67;;;13.00;99.90;;;;;;5030154;28;20456;-78
2023/04/29 11:22:29;;;;;;;30.03;23.10;;;13.10;99.90;;;;;;5031657;28;20436;-79
2023/04/29 11:24:54;;;;;;;28.77;23.70;;;13.10;99.90;;;;;;5031915;28;20409;-77
2023/04/29 11:27:24;;;;;;;33.13;22.00;;;13.20;99.90;;;;;;5030991;28;20568;-76
2023/04/29 11:29:57;;;;;;;27.53;23.47;;;13.20;99.90;;;;;;5031522;28;20189;-79
2023/04/29 11:32:30;;;;;;;28.20;22.60;;;13.30;99.90;;;;;;5031445;28;20429;-76
2023/04/29 11:35:16;;;;;;;26.90;22.23;;;13.30;99.90;;;;;;5030724;28;21005;-79
2023/04/29 11:37:44;;;;;;;27.07;22.33;;;13.30;99.90;;;;;;5031149;28;20508;-78
2023/04/29 11:40:11;;;;;;;34.40;23.60;;;13.40;99.90;;;;;;5032735;28;20416;-79
2023/04/29 11:42:44;;;;;;;27.13;21.80;;;13.40;99.90;;;;;;5032614;28;20417;-79
2023/04/29 11:45:11;;;;;;;26.77;22.30;;;13.40;99.90;;;;;;5032603;28;20393;-78
2023/04/29 11:47:37;;;;;;;25.03;21.13;;;13.50;99.90;;;;;;5032177;28;20551;-78
2023/04/29 11:50:07;;;;;;;24.20;20.70;;;13.40;99.90;;;;;;5032666;28;20405;-79
2023/04/29 11:52:35;;;;;;;24.80;19.37;;;13.40;99.90;;;;;;5032536;28;20480;-76
2023/04/29 11:55:02;;;;;;;22.87;19.87;;;13.40;99.90;;;;;;5029728;28;20487;-76
2023/04/29 11:57:28;;;;;;;23.63;18.00;;;13.40;99.90;;;;;;5030885;28;20447;-78
2023/04/29 11:59:54;;;;;;;25.30;18.97;;;13.50;99.90;;;;;;5032718;28;20803;-76
2023/04/29 12:02:30;;;;;;;20.57;18.20;;;13.50;99.90;;;;;;5032580;28;21207;-77
2023/04/29 12:05:02;;;;;;;21.70;18.53;;;13.70;99.90;;;;;;5030333;28;21042;-77
2023/04/29 12:07:28;;;;;;;22.43;18.50;;;13.70;99.90;;;;;;5032699;28;20515;-76
2023/04/29 12:09:56;;;;;;;24.23;17.60;;;13.80;99.90;;;;;;5032407;28;20425;-77
2023/04/29 12:12:22;;;;;;;21.37;18.80;;;13.80;99.90;;;;;;5032983;28;20198;-79
2023/04/29 12:14:48;;;;;;;24.53;19.40;;;13.80;99.90;;;;;;5032164;28;20522;-79
2023/04/29 12:17:13;;;;;;;21.97;19.47;;;13.90;99.90;;;;;;5032903;28;20837;-79
2023/04/29 12:19:40;;;;;;;21.80;19.40;;;13.80;99.90;;;;;;5032441;28;20417;-78
2023/04/29 12:22:06;;;;;;;20.67;18.60;;;13.90;99.90;;;;;;5030028;28;20202;-79
2023/04/29 12:24:36;;;;;;;19.57;17.47;;;13.90;99.90;;;;;;5031956;28;20432;-78
2023/04/29 12:27:02;;;;;;;21.27;18.97;;;14.00;99.90;;;;;;5036381;28;20949;-79
2023/04/29 12:29:28;;;;;;;24.30;18.67;;;14.00;99.90;;;;;;5036285;28;20409;-79
2023/04/29 12:31:56;;;;;;;22.60;20.17;;;14.00;99.90;;;;;;5036095;28;20437;-79